Time;durP1;ratioP1;P1;durP2;ratioP2;P2;SDS_P1;SDS_P2;PMS_P1;PMS_P2;Temp;Humidity;BMP_temperature;BMP_pressure;BME280_temperature;BME280_humidity;BME280_pressure;Samples;Min_cycle;Max_cycle;Signal;HPM_P1;HPM_P2
2022/01/31 00:00:56;;;;;;;;;8.00;6.50;;;;;20.41;32.99;101821.91;5078218;27;45884;-58
2022/01/31 00:03:21;;;;;;;;;5.50;5.25;;;;;20.41;32.90;101823.69;5077631;28;45420;-63
2022/01/31 00:05:47;;;;;;;;;3.00;3.00;;;;;20.40;33.20;101804.38;5077914;27;45388;-60
2022/01/31 00:08:14;;;;;;;;;6.25;4.50;;;;;20.39;32.85;101803.53;5078185;27;45341;-57
2022/01/31 00:10:40;;;;;;;;;6.00;5.00;;;;;20.38;33.19;101796.56;5077983;27;45345;-57
2022/01/31 00:13:09;;;;;;;;;6.00;5.00;;;;;20.38;33.16;101790.44;5077459;27;46290;-57
2022/01/31 00:15:42;;;;;;;;;8.75;5.00;;;;;20.39;33.24;101779.84;5077467;27;45428;-59
2022/01/31 00:18:07;;;;;;;;;6.75;5.50;;;;;20.37;33.37;101768.50;5077857;27;45343;-62
2022/01/31 00:20:35;;;;;;;;;6.00;6.00;;;;;20.37;33.06;101768.50;5077725;27;45330;-63
2022/01/31 00:23:00;;;;;;;;;6.75;6.75;;;;;20.37;33.24;101754.50;5077474;27;46435;-63
2022/01/31 00:25:26;;;;;;;;;6.50;5.00;;;;;20.37;32.98;101746.59;5077492;27;45409;-63
2022/01/31 00:27:51;;;;;;;;;5.75;4.00;;;;;20.37;33.15;101751.88;5077633;27;45294;-63
2022/01/31 00:30:17;;;;;;;;;9.00;5.75;;;;;20.35;32.78;101754.53;5078105;27;45439;-62
2022/01/31 00:32:43;;;;;;;;;5.25;4.25;;;;;20.36;33.13;101748.34;5077404;27;45617;-60
2022/01/31 00:35:10;;;;;;;;;5.75;5.25;;;;;20.35;33.13;101736.09;5076086;27;45244;-63
2022/01/31 00:37:36;;;;;;;;;7.25;6.75;;;;;20.32;32.95;101727.47;5077645;27;45335;-63
2022/01/31 00:40:04;;;;;;;;;6.00;6.00;;;;;20.36;32.97;101723.81;5077643;27;45449;-62
2022/01/31 00:42:30;;;;;;;;;7.25;4.75;;;;;20.34;32.87;101721.22;5077081;27;45496;-64
2022/01/31 00:45:07;;;;;;;;;6.25;4.25;;;;;20.33;33.09;101727.44;5077381;27;45731;-60
2022/01/31 00:47:33;;;;;;;;;5.25;4.25;;;;;20.33;32.99;101735.34;5076726;28;45289;-62
2022/01/31 00:50:09;;;;;;;;;6.00;5.00;;;;;20.34;32.96;101746.72;5077644;27;45671;-63
2022/01/31 00:52:36;;;;;;;;;7.00;6.50;;;;;20.32;32.89;101749.41;5077258;27;45453;-63
2022/01/31 00:55:04;;;;;;;;;5.75;5.75;;;;;20.34;32.82;101733.53;5077064;27;45372;-62
2022/01/31 00:57:30;;;;;;;;;7.25;6.25;;;;;20.32;33.41;101741.53;5077191;27;45365;-63
2022/01/31 00:59:56;;;;;;;;;5.00;5.00;;;;;20.31;32.82;101742.44;5077297;27;45252;-59
2022/01/31 01:02:22;;;;;;;;;6.00;3.00;;;;;20.32;32.68;101743.28;5076865;27;45303;-58
2022/01/31 01:04:48;;;;;;;;;3.50;3.00;;;;;20.32;32.92;101712.56;5077302;27;45414;-64
2022/01/31 01:07:14;;;;;;;;;8.25;5.25;;;;;20.31;32.66;101699.44;5077192;27;45232;-58
2022/01/31 01:09:46;;;;;;;;;6.00;5.00;;;;;20.30;32.53;101693.34;5077256;27;45902;-59
2022/01/31 01:12:13;;;;;;;;;6.00;4.75;;;;;20.30;33.09;101682.81;5075427;27;47223;-59
2022/01/31 01:14:39;;;;;;;;;6.00;5.00;;;;;20.29;32.56;101691.63;5076705;28;45320;-57
2022/01/31 01:17:05;;;;;;;;;5.00;5.00;;;;;20.31;32.61;101687.16;5077106;28;45765;-58
2022/01/31 01:19:30;;;;;;;;;3.50;3.50;;;;;20.30;33.11;101681.94;5076968;27;45512;-58
2022/01/31 01:21:56;;;;;;;;;5.50;4.00;;;;;20.30;33.24;101677.53;5076556;27;45368;-58
2022/01/31 01:24:21;;;;;;;;;5.75;5.75;;;;;20.29;32.89;101670.56;5076801;27;45212;-58
2022/01/31 01:26:48;;;;;;;;;7.00;5.50;;;;;20.28;32.76;101663.56;5077161;27;45389;-58
2022/01/31 01:29:13;;;;;;;;;5.25;4.25;;;;;20.29;33.08;101667.03;5092986;27;45603;-60
2022/01/31 01:31:39;;;;;;;;;5.00;3.00;;;;;20.28;32.84;101642.50;5076565;27;45527;-58
2022/01/31 01:34:04;;;;;;;;;5.75;5.75;;;;;20.28;32.51;101621.47;5076288;27;45427;-59
2022/01/31 01:36:31;;;;;;;;;3.50;3.50;;;;;20.28;33.05;101617.97;5076762;27;45477;-58
2022/01/31 01:38:57;;;;;;;;;5.00;4.00;;;;;20.27;32.78;101629.44;5077061;27;45531;-58
2022/01/31 01:41:22;;;;;;;;;4.00;4.00;;;;;20.26;32.89;101604.88;5075076;28;47204;-57
2022/01/31 01:43:48;;;;;;;;;6.00;5.00;;;;;20.26;32.73;101614.56;5076621;27;45267;-57
2022/01/31 01:46:13;;;;;;;;;5.25;4.00;;;;;20.25;33.12;101605.78;5076595;27;45719;-57
2022/01/31 01:48:39;;;;;;;;;4.50;3.00;;;;;20.26;32.98;101607.50;5075387;28;45522;-57
2022/01/31 01:51:04;;;;;;;;;3.75;3.75;;;;;20.25;33.17;101589.97;5076304;27;47449;-57
2022/01/31 01:53:30;;;;;;;;;5.25;4.00;;;;;20.22;32.60;101595.41;5074959;28;45462;-59
2022/01/31 01:55:56;;;;;;;;;4.00;3.25;;;;;20.24;32.77;101599.66;5076513;27;45215;-60
2022/01/31 01:58:24;;;;;;;;;3.75;3.75;;;;;20.24;33.23;101593.53;5079329;27;45237;-57
2022/01/31 02:01:01;;;;;;;;;9.00;3.25;;;;;20.25;32.96;101605.78;5079980;27;46192;-58
2022/01/31 02:03:28;;;;;;;;;4.00;3.00;;;;;20.23;32.53;101610.25;5079760;27;45305;-57
2022/01/31 02:05:54;;;;;;;;;4.75;3.00;;;;;20.24;33.03;101588.28;5079927;27;45324;-57
2022/01/31 02:08:20;;;;;;;;;5.00;5.00;;;;;20.22;32.99;101587.50;5078982;28;45501;-56
2022/01/31 02:10:46;;;;;;;;;6.25;5.00;;;;;20.22;32.74;101601.50;5077590;28;45411;-57
2022/01/31 02:13:15;;;;;;;;;5.50;4.00;;;;;20.21;32.60;101576.09;5079524;27;45549;-57
2022/01/31 02:15:43;;;;;;;;;4.25;3.75;;;;;20.23;33.18;101581.28;5078514;28;45349;-58
2022/01/31 02:18:08;;;;;;;;;5.25;4.25;;;;;20.20;32.88;101587.56;5079837;27;45478;-58
2022/01/31 02:20:41;;;;;;;;;4.00;3.25;;;;;20.21;32.52;101567.38;5079558;27;46120;-57
2022/01/31 02:23:08;;;;;;;;;5.00;5.00;;;;;20.21;32.83;101562.94;5079407;27;45319;-57
2022/01/31 02:25:53;;;;;;;;;5.00;3.25;;;;;20.21;32.72;101560.31;5079693;27;45428;-59
2022/01/31 02:28:20;;;;;;;;;3.75;3.25;;;;;20.20;32.67;101571.75;5080010;27;45247;-58
2022/01/31 02:30:45;;;;;;;;;6.50;4.00;;;;;20.20;33.18;101561.22;5079495;27;45319;-58
2022/01/31 02:33:11;;;;;;;;;4.75;3.50;;;;;20.20;32.87;101555.13;5078182;27;45856;-58
2022/01/31 02:35:36;;;;;;;;;3.00;3.00;;;;;20.20;32.99;101541.97;5079497;27;45211;-58
2022/01/31 02:38:01;;;;;;;;;4.00;4.00;;;;;20.19;32.96;101513.94;5079535;27;45578;-58
2022/01/31 02:40:28;;;;;;;;;6.00;4.00;;;;;20.19;33.07;101543.72;5079251;27;45613;-59
2022/01/31 02:42:54;;;;;;;;;4.00;3.00;;;;;20.17;33.07;101532.44;5079306;27;45409;-58
2022/01/31 02:45:19;;;;;;;;;5.00;5.00;;;;;20.18;33.38;101531.47;5079662;27;45371;-58
2022/01/31 02:47:51;;;;;;;;;4.50;3.25;;;;;20.18;33.21;101517.47;5079568;27;45762;-60
2022/01/31 02:50:18;;;;;;;;;4.00;3.00;;;;;20.18;32.73;101522.75;5079141;28;46584;-58
2022/01/31 02:52:48;;;;;;;;;4.75;3.00;;;;;20.14;32.58;101500.97;5079073;27;45816;-58
2022/01/31 02:55:14;;;;;;;;;3.25;3.00;;;;;20.17;33.26;101497.34;5077732;28;45287;-59
2022/01/31 02:57:39;;;;;;;;;5.00;3.00;;;;;20.17;32.67;101508.75;5079345;27;45491;-58
2022/01/31 03:00:06;;;;;;;;;2.50;2.25;;;;;20.18;32.96;101501.69;5077553;27;48438;-59
2022/01/31 03:02:31;;;;;;;;;4.75;3.25;;;;;20.17;33.13;101492.09;5078840;27;45816;-58
2022/01/31 03:04:56;;;;;;;;;4.25;4.25;;;;;20.16;33.17;101496.50;5079115;27;45247;-59
2022/01/31 03:07:22;;;;;;;;;3.25;2.25;;;;;20.16;33.00;101470.19;5079597;27;45572;-58
2022/01/31 03:09:47;;;;;;;;;6.25;3.00;;;;;20.16;32.94;101470.19;5078080;27;46334;-62
2022/01/31 03:12:13;;;;;;;;;2.00;2.00;;;;;20.16;33.36;101461.41;5078549;27;45458;-58
2022/01/31 03:14:42;;;;;;;;;3.50;3.25;;;;;20.16;33.06;101470.19;5078998;28;45318;-58
2022/01/31 03:17:08;;;;;;;;;3.00;3.00;;;;;20.16;32.74;101464.91;5079050;27;45542;-60
2022/01/31 03:19:37;;;;;;;;;7.75;4.00;;;;;20.16;32.76;101453.53;5078475;27;46186;-60
2022/01/31 03:22:04;;;;;;;;;4.00;4.00;;;;;20.15;33.36;101451.81;5078599;27;45348;-60
2022/01/31 03:24:29;;;;;;;;;2.50;2.00;;;;;20.15;32.81;101451.81;5078622;27;45468;-59
2022/01/31 03:26:54;;;;;;;;;7.25;4.75;;;;;20.14;32.83;101452.72;5079116;27;45512;-60
2022/01/31 03:29:20;;;;;;;;;5.00;3.00;;;;;20.15;33.39;101459.69;5076934;28;46980;-58
2022/01/31 03:31:45;;;;;;;;;2.00;2.00;;;;;20.14;33.43;101456.22;5078424;27;45921;-58
2022/01/31 03:34:10;;;;;;;;;1.25;1.25;;;;;20.15;33.12;101470.22;5078528;27;45345;-58
2022/01/31 03:36:36;;;;;;;;;4.00;4.00;;;;;20.15;33.21;101462.34;5078662;27;45570;-58
2022/01/31 03:39:01;;;;;;;;;3.00;2.00;;;;;20.13;32.90;101456.28;5078167;27;46977;-58
2022/01/31 03:41:27;;;;;;;;;2.00;2.00;;;;;20.15;33.17;101441.28;5078265;27;45364;-57
2022/01/31 03:43:53;;;;;;;;;4.75;3.00;;;;;20.14;33.28;101461.50;5078557;28;45358;-58
2022/01/31 03:46:18;;;;;;;;;2.50;2.25;;;;;20.14;33.30;101429.03;5078547;27;45362;-58
2022/01/31 03:48:46;;;;;;;;;3.75;3.75;;;;;20.14;33.53;101434.31;5078090;27;46332;-57
2022/01/31 03:51:11;;;;;;;;;2.00;2.00;;;;;20.14;33.33;101437.81;5078151;27;45275;-59
2022/01/31 03:53:36;;;;;;;;;3.00;3.00;;;;;20.14;33.46;101436.94;5078265;27;45364;-59
2022/01/31 03:56:02;;;;;;;;;2.25;2.25;;;;;20.13;33.71;101417.69;5078352;27;45589;-59
2022/01/31 03:58:27;;;;;;;;;2.00;2.00;;;;;20.13;33.24;101407.16;5078227;27;45756;-58
2022/01/31 04:00:53;;;;;;;;;3.00;2.25;;;;;20.13;33.51;101401.88;5078287;28;45426;-59
2022/01/31 04:03:18;;;;;;;;;4.50;3.00;;;;;20.12;33.57;101413.34;5076633;27;45277;-60
2022/01/31 04:05:43;;;;;;;;;2.00;2.00;;;;;20.13;33.04;101422.94;5078168;27;45407;-60
2022/01/31 04:08:09;;;;;;;;;3.50;3.00;;;;;20.11;33.21;101430.03;5077715;27;45533;-59
2022/01/31 04:10:37;;;;;;;;;3.00;2.75;;;;;20.13;33.63;101432.59;5077892;27;45320;-60
2022/01/31 04:13:03;;;;;;;;;3.25;2.25;;;;;20.12;33.61;101441.44;5077623;27;45298;-58
2022/01/31 04:15:28;;;;;;;;;2.00;2.00;;;;;20.12;33.51;101447.53;5078349;27;45758;-58
2022/01/31 04:17:54;;;;;;;;;3.25;3.25;;;;;20.11;33.42;101439.72;5077748;27;47325;-60
2022/01/31 04:20:20;;;;;;;;;3.50;2.00;;;;;20.13;33.21;101435.22;5076419;28;45401;-59
2022/01/31 04:25:28;;;;;;;;;2.50;1.75;;;;;20.11;33.26;101445.84;5077910;27;45318;-60
2022/01/31 04:28:02;;;;;;;;;2.00;2.00;;;;;20.12;33.50;101451.97;5077851;27;46508;-60
2022/01/31 04:30:31;;;;;;;;;1.75;1.00;;;;;20.11;33.42;101445.84;5077841;27;45230;-59
2022/01/31 04:32:56;;;;;;;;;1.00;1.00;;;;;20.11;33.78;101452.88;5078004;27;45384;-60
2022/01/31 04:35:22;;;;;;;;;2.50;2.00;;;;;20.11;33.77;101451.09;5077704;27;45515;-60
2022/01/31 04:37:47;;;;;;;;;2.25;2.00;;;;;20.10;33.82;101454.66;5077181;27;46473;-59
2022/01/31 04:40:14;;;;;;;;;2.00;2.00;;;;;20.11;33.77;101458.16;5077312;27;45441;-59
2022/01/31 04:42:43;;;;;;;;;3.00;1.00;;;;;20.11;33.81;101460.78;5077474;27;45408;-59
2022/01/31 04:45:09;;;;;;;;;1.00;1.00;;;;;20.10;34.11;101457.28;5077635;27;45178;-60
2022/01/31 04:47:34;;;;;;;;;2.00;2.00;;;;;20.10;33.69;101454.66;5075890;28;46355;-60
2022/01/31 04:50:00;;;;;;;;;1.00;1.00;;;;;20.09;33.98;101447.66;5077590;27;45259;-61
2022/01/31 04:52:25;;;;;;;;;2.00;2.00;;;;;20.10;33.75;101438.00;5077773;27;45544;-60
2022/01/31 04:54:50;;;;;;;;;4.00;1.00;;;;;20.10;34.19;101424.84;5077498;27;45235;-60
2022/01/31 04:57:17;;;;;;;;;2.00;1.50;;;;;20.10;33.97;101430.13;5076935;27;45512;-60
2022/01/31 04:59:43;;;;;;;;;1.00;1.00;;;;;20.10;33.71;101430.13;5077044;27;45805;-60
2022/01/31 05:02:09;;;;;;;;;1.75;1.00;;;;;20.09;33.79;101445.03;5075890;28;45469;-60
2022/01/31 05:04:34;;;;;;;;;1.00;1.00;;;;;20.09;33.91;101447.66;5077317;27;45393;-59
2022/01/31 05:07:00;;;;;;;;;2.75;0.50;;;;;20.08;33.82;101452.09;5077209;27;46355;-60
2022/01/31 05:09:25;;;;;;;;;0.00;0.00;;;;;20.08;33.64;101456.47;5077211;27;45393;-60
2022/01/31 05:11:50;;;;;;;;;1.25;1.25;;;;;20.09;33.68;101452.94;5076930;27;45414;-61
2022/01/31 05:14:17;;;;;;;;;2.00;1.00;;;;;20.10;34.09;101451.16;5077168;27;45465;-59
2022/01/31 05:16:43;;;;;;;;;1.00;1.00;;;;;20.09;33.95;101458.19;5076832;27;46502;-61
2022/01/31 05:19:08;;;;;;;;;2.00;1.00;;;;;20.10;34.38;101469.59;5077159;27;45288;-61
2022/01/31 05:21:34;;;;;;;;;2.50;1.00;;;;;20.09;34.13;101463.47;5075630;28;45491;-60
2022/01/31 05:23:59;;;;;;;;;2.00;0.00;;;;;20.09;34.12;101468.72;5077222;27;45647;-60
2022/01/31 05:26:25;;;;;;;;;2.75;1.00;;;;;20.10;34.50;101472.22;5076630;27;45350;-60
2022/01/31 05:28:50;;;;;;;;;2.50;1.50;;;;;20.08;34.18;101467.88;5076515;27;45212;-59
2022/01/31 05:31:16;;;;;;;;;1.00;1.00;;;;;20.10;34.25;101469.59;5075631;27;45324;-59
2022/01/31 05:33:41;;;;;;;;;2.00;1.00;;;;;20.08;34.20;101473.16;5076605;27;45236;-58
2022/01/31 05:36:07;;;;;;;;;1.50;1.00;;;;;20.07;34.14;101484.59;5075323;28;48148;-59
2022/01/31 05:38:38;;;;;;;;;0.00;0.00;;;;;20.08;34.59;101483.66;5076774;27;45526;-58
2022/01/31 05:41:07;;;;;;;;;0.00;0.00;;;;;20.09;33.97;101479.25;5076707;27;45238;-58
2022/01/31 05:43:33;;;;;;;;;2.00;1.00;;;;;20.07;34.33;101500.38;5076708;27;45432;-57
2022/01/31 05:45:58;;;;;;;;;0.25;0.25;;;;;20.07;34.00;101487.22;5076634;27;46511;-60
2022/01/31 05:48:24;;;;;;;;;1.00;1.00;;;;;20.06;33.98;101467.09;5076543;27;45348;-57
2022/01/31 05:50:49;;;;;;;;;0.75;0.75;;;;;20.06;34.42;101480.25;5076645;27;45440;-60
2022/01/31 05:53:14;;;;;;;;;2.00;1.00;;;;;20.06;34.33;101485.50;5075570;28;45511;-60
2022/01/31 05:55:40;;;;;;;;;1.00;1.00;;;;;20.07;34.33;101500.38;5076233;27;46278;-59
2022/01/31 05:58:06;;;;;;;;;0.50;0.25;;;;;20.06;34.17;101485.50;5076386;27;45391;-59
2022/01/31 06:00:32;;;;;;;;;1.00;1.00;;;;;20.06;34.03;101485.50;5075480;28;45326;-61
2022/01/31 06:02:59;;;;;;;;;1.50;1.00;;;;;20.06;33.98;101467.09;5076663;27;45231;-60
2022/01/31 06:05:26;;;;;;;;;2.50;1.50;;;;;20.06;34.31;101474.13;5076251;27;45517;-59
2022/01/31 06:07:51;;;;;;;;;1.00;1.00;;;;;20.05;34.44;101464.53;5074923;28;45598;-60
2022/01/31 06:10:17;;;;;;;;;0.00;0.00;;;;;20.05;34.13;101478.53;5076346;27;45223;-60
2022/01/31 06:12:42;;;;;;;;;0.00;0.00;;;;;20.05;33.98;101499.59;5076223;27;45411;-61
2022/01/31 06:15:08;;;;;;;;;1.00;1.00;;;;;20.05;33.96;101483.78;5075975;27;46053;-60
2022/01/31 06:17:34;;;;;;;;;1.00;0.75;;;;;20.05;34.38;101483.78;5076282;27;45805;-57
2022/01/31 06:19:59;;;;;;;;;1.00;1.00;;;;;20.05;34.37;101494.31;5075157;28;45519;-57
2022/01/31 06:22:25;;;;;;;;;1.00;1.00;;;;;20.05;34.52;101496.94;5074873;28;45303;-60
2022/01/31 06:24:50;;;;;;;;;1.00;1.00;;;;;20.04;33.86;101497.88;5075898;27;46266;-59
2022/01/31 06:27:16;;;;;;;;;1.75;1.75;;;;;20.04;34.28;101489.13;5076044;27;45524;-58
2022/01/31 06:29:42;;;;;;;;;1.25;1.00;;;;;20.03;34.49;101485.63;5074899;28;45383;-57
2022/01/31 06:32:07;;;;;;;;;1.00;1.00;;;;;20.03;34.47;101490.88;5076092;27;45590;-56
2022/01/31 06:34:33;;;;;;;;;0.00;0.00;;;;;20.02;34.16;101478.66;5076175;28;46232;-59
2022/01/31 06:37:02;;;;;;;;;2.00;1.00;;;;;20.03;33.89;101503.22;5075856;27;45393;-55
2022/01/31 06:39:28;;;;;;;;;1.00;1.00;;;;;19.97;33.03;101501.69;5075705;27;45440;-56
2022/01/31 06:41:53;;;;;;;;;1.50;0.00;;;;;19.84;32.99;101489.94;5075998;27;45304;-55
2022/01/31 06:44:19;;;;;;;;;1.00;1.00;;;;;19.72;32.85;101497.41;5076484;27;45469;-58
2022/01/31 06:46:44;;;;;;;;;2.75;1.50;;;;;19.63;33.17;101489.91;5078019;27;45374;-55
2022/01/31 06:49:09;;;;;;;;;0.50;0.50;;;;;19.55;32.88;101484.13;5079269;27;45361;-57
2022/01/31 06:51:35;;;;;;;;;3.25;2.00;;;;;19.46;32.88;101504.59;5079637;27;45364;-59
2022/01/31 06:54:01;;;;;;;;;3.00;1.00;;;;;19.37;33.00;101494.44;5078915;27;45483;-60
2022/01/31 06:56:32;;;;;;;;;1.00;0.00;;;;;19.27;32.73;101486.09;5077801;27;45643;-58
2022/01/31 06:58:58;;;;;;;;;2.00;1.00;;;;;19.20;32.34;101508.25;5078891;27;45292;-58
2022/01/31 07:01:25;;;;;;;;;1.00;1.00;;;;;19.09;32.58;101489.41;5079190;27;45308;-60
2022/01/31 07:03:53;;;;;;;;;1.25;1.25;;;;;19.05;32.75;101491.31;5078694;27;47464;-64
2022/01/31 07:06:18;;;;;;;;;2.25;2.25;;;;;18.96;32.81;101499.56;5077614;28;45858;-60
2022/01/31 07:08:43;;;;;;;;;1.25;1.25;;;;;18.91;32.53;101517.22;5078966;27;45715;-61
2022/01/31 07:11:14;;;;;;;;;2.25;2.25;;;;;18.88;32.56;101525.22;5078987;27;45673;-61
2022/01/31 07:13:39;;;;;;;;;1.00;1.00;;;;;18.81;32.57;101525.44;5078803;27;45414;-60
2022/01/31 07:16:06;;;;;;;;;1.75;1.00;;;;;18.78;33.06;101519.44;5078986;27;45591;-57
2022/01/31 07:18:33;;;;;;;;;1.25;1.00;;;;;18.80;33.25;101523.72;5078972;27;45302;-53
2022/01/31 07:20:59;;;;;;;;;1.00;1.00;;;;;18.84;33.13;101530.59;5079032;27;45435;-57
2022/01/31 07:23:28;;;;;;;;;2.25;2.00;;;;;18.93;33.13;101528.53;5077080;27;47908;-56
2022/01/31 07:25:55;;;;;;;;;2.00;0.75;;;;;18.98;33.37;101548.47;5078447;27;45342;-56
2022/01/31 07:28:21;;;;;;;;;3.00;1.00;;;;;19.02;33.52;101538.72;5078564;27;45335;-54
2022/01/31 07:30:51;;;;;;;;;0.50;0.50;;;;;19.08;33.47;101540.25;5078661;27;45620;-53
2022/01/31 07:33:18;;;;;;;;;5.25;1.00;;;;;19.14;33.53;101532.16;5078644;28;45366;-56
2022/01/31 07:35:47;;;;;;;;;1.75;1.00;;;;;19.18;33.52;101544.28;5078357;27;45359;-56
2022/01/31 07:38:12;;;;;;;;;1.00;1.00;;;;;19.22;33.51;101547.63;5078512;27;46021;-53
2022/01/31 07:40:39;;;;;;;;;2.25;0.75;;;;;19.26;33.14;101538.69;5078569;27;45333;-53
2022/01/31 07:43:05;;;;;;;;;2.00;1.00;;;;;19.28;33.38;101544.75;5078338;27;45314;-52
2022/01/31 07:45:30;;;;;;;;;1.50;1.00;;;;;19.32;33.37;101543.72;5078276;27;45542;-52
2022/01/31 07:47:55;;;;;;;;;0.75;0.75;;;;;19.35;33.00;101554.09;5077094;28;45162;-55
2022/01/31 07:50:21;;;;;;;;;1.00;1.00;;;;;19.38;33.14;101561.88;5078393;27;45649;-52
2022/01/31 07:52:46;;;;;;;;;0.00;0.00;;;;;19.39;33.34;101568.84;5078086;27;46427;-52
2022/01/31 07:55:12;;;;;;;;;0.75;0.75;;;;;19.42;33.14;101560.84;5077643;27;45215;-55
2022/01/31 07:57:40;;;;;;;;;1.00;1.00;;;;;19.44;33.23;101561.66;5078519;27;45426;-54
2022/01/31 08:00:08;;;;;;;;;1.25;0.00;;;;;19.46;33.45;101570.31;5078493;27;45521;-54
2022/01/31 08:02:33;;;;;;;;;0.00;0.00;;;;;19.49;33.44;101579.00;5076884;27;46655;-54
2022/01/31 08:04:59;;;;;;;;;1.75;0.00;;;;;19.49;33.43;101579.00;5077861;27;45722;-52
2022/01/31 08:07:24;;;;;;;;;1.25;1.00;;;;;19.50;33.36;101588.59;5078030;27;45242;-55
2022/01/31 08:09:50;;;;;;;;;2.00;1.00;;;;;19.52;33.20;101587.63;5078178;27;45351;-54
2022/01/31 08:12:15;;;;;;;;;2.75;0.50;;;;;19.53;33.22;101583.22;5077581;27;46403;-52
2022/01/31 08:14:41;;;;;;;;;1.00;1.00;;;;;19.54;33.23;101591.06;5077631;27;45231;-53
2022/01/31 08:17:06;;;;;;;;;0.00;0.00;;;;;19.56;33.33;101604.16;5078213;27;45374;-53
2022/01/31 08:19:33;;;;;;;;;2.00;1.00;;;;;19.56;33.39;101602.38;5077895;27;45666;-50
2022/01/31 08:21:59;;;;;;;;;2.00;1.00;;;;;19.59;33.63;101593.50;5077492;27;47345;-54
2022/01/31 08:24:24;;;;;;;;;0.75;0.75;;;;;19.59;33.51;101590.88;5077519;27;45380;-52
2022/01/31 08:26:49;;;;;;;;;1.50;0.50;;;;;19.60;33.27;101603.09;5077778;27;45394;-53
2022/01/31 08:29:36;;;;;;;;;1.00;1.00;;;;;19.62;33.25;101596.00;5077873;27;45486;-57
2022/01/31 08:32:14;;;;;;;;;0.00;0.00;;;;;19.60;33.47;101587.31;5077359;28;47172;-57
2022/01/31 08:37:24;;;;;;;;;2.00;1.00;;;;;19.61;33.36;101594.31;5077445;27;45224;-53
2022/01/31 08:39:50;;;;;;;;;2.75;1.50;;;;;19.59;33.93;101597.00;5076295;28;45605;-52
2022/01/31 08:42:15;;;;;;;;;1.25;1.00;;;;;19.58;33.71;101600.53;5077129;27;47052;-54
2022/01/31 08:44:41;;;;;;;;;2.50;0.00;;;;;19.58;33.47;101591.78;5077355;27;45350;-49
2022/01/31 08:47:06;;;;;;;;;1.00;1.00;;;;;19.56;33.58;101583.13;5077792;28;45445;-55
2022/01/31 08:49:35;;;;;;;;;1.25;1.25;;;;;19.56;34.04;101598.91;5077649;27;45291;-53
2022/01/31 08:52:01;;;;;;;;;3.75;2.00;;;;;19.51;33.43;101613.97;5077124;27;46233;-54
2022/01/31 08:54:26;;;;;;;;;2.75;1.00;;;;;19.54;34.21;101621.75;5077158;27;45359;-55
2022/01/31 08:56:52;;;;;;;;;2.00;0.50;;;;;19.56;33.69;101633.94;5075796;28;45391;-55
2022/01/31 08:59:19;;;;;;;;;2.75;0.25;;;;;19.59;33.92;101638.19;5077304;27;45405;-54
2022/01/31 09:01:53;;;;;;;;;1.75;1.75;;;;;19.62;34.03;101643.34;5075645;28;47232;-53
2022/01/31 09:04:47;;;;;;;;;0.00;0.00;;;;;19.64;34.15;101631.00;5076718;27;45299;-54
2022/01/31 09:07:17;;;;;;;;;2.75;1.00;;;;;19.67;34.38;101623.00;5076279;27;45232;-55
2022/01/31 09:09:43;;;;;;;;;1.00;1.00;;;;;19.67;34.34;101615.13;5077169;27;45359;-54
2022/01/31 09:12:10;;;;;;;;;0.75;0.75;;;;;19.71;34.08;101608.78;5076954;27;46069;-54
2022/01/31 09:14:35;;;;;;;;;1.00;0.00;;;;;19.71;34.15;101595.66;5076777;27;45824;-54
2022/01/31 09:17:02;;;;;;;;;1.00;1.00;;;;;19.75;34.47;101601.63;5076864;27;45448;-52
2022/01/31 09:19:27;;;;;;;;;2.00;1.00;;;;;19.74;34.17;101584.13;5077004;27;45481;-53
2022/01/31 09:21:53;;;;;;;;;3.25;1.00;;;;;19.76;34.43;101596.34;5076749;27;45409;-58
2022/01/31 09:24:18;;;;;;;;;1.00;1.00;;;;;19.77;34.58;101582.25;5076435;27;45305;-56
2022/01/31 09:26:43;;;;;;;;;2.00;0.75;;;;;19.80;34.52;101604.06;5076842;27;45248;-49
2022/01/31 09:29:09;;;;;;;;;2.00;0.50;;;;;19.78;34.29;101605.03;5077225;27;45573;-57
2022/01/31 09:31:35;;;;;;;;;2.25;1.00;;;;;19.77;34.16;101594.53;5076485;27;46075;-57
2022/01/31 09:34:00;;;;;;;;;2.00;1.00;;;;;19.76;33.50;101605.97;5076520;27;45251;-56
2022/01/31 09:36:27;;;;;;;;;2.00;2.00;;;;;19.72;33.74;101607.88;5076628;27;45259;-57
2022/01/31 09:38:53;;;;;;;;;1.75;0.00;;;;;19.74;34.21;101611.31;5076817;27;45520;-57
2022/01/31 09:41:22;;;;;;;;;1.00;1.00;;;;;19.72;33.91;101602.63;5076413;27;45847;-56
2022/01/31 09:44:03;;;;;;;;;2.25;1.00;;;;;19.72;34.12;101607.88;5076500;27;45322;-56
2022/01/31 09:48:56;;;;;;;;;0.50;0.50;;;;;19.75;33.67;101606.91;5076640;27;45391;-55
2022/01/31 09:51:24;;;;;;;;;1.00;1.00;;;;;19.76;34.07;101613.88;5076105;27;45376;-58
2022/01/31 09:54:00;;;;;;;;;1.00;1.00;;;;;19.77;33.43;101603.31;5076294;27;45245;-55
2022/01/31 09:56:29;;;;;;;;;1.00;1.00;;;;;19.76;33.66;101606.84;5076304;27;45356;-58
2022/01/31 09:58:56;;;;;;;;;0.50;0.25;;;;;19.73;33.55;101614.84;5076645;27;45397;-56
2022/01/31 10:01:32;;;;;;;;;2.25;1.00;;;;;19.74;33.54;101606.06;5076104;27;46228;-57
2022/01/31 10:04:02;;;;;;;;;2.00;2.00;;;;;19.72;33.56;101610.50;5076245;28;45793;-56
2022/01/31 10:06:32;;;;;;;;;1.00;0.00;;;;;19.70;33.72;101625.50;5076333;27;45386;-56
2022/01/31 10:09:15;;;;;;;;;4.25;2.50;;;;;19.68;33.46;101614.16;5076325;27;45472;-56
2022/01/31 10:17:24;;;;;;;;;0.75;0.00;;;;;19.63;32.88;101637.19;5075347;28;45367;-58
2022/01/31 10:19:53;;;;;;;;;1.00;1.00;;;;;19.60;32.80;101639.91;5079443;27;45369;-55
2022/01/31 10:22:19;;;;;;;;;2.75;1.00;;;;;19.58;32.32;101633.84;5077916;27;46366;-59
2022/01/31 10:24:48;;;;;;;;;2.75;1.00;;;;;19.58;32.04;101641.75;5079923;27;45881;-55
2022/01/31 10:27:27;;;;;;;;;2.75;2.00;;;;;19.54;31.83;101646.25;5080159;27;45246;-54
2022/01/31 10:29:56;;;;;;;;;1.75;1.50;;;;;19.53;31.86;101635.81;5079778;27;45614;-58
2022/01/31 10:32:30;;;;;;;;;0.75;0.75;;;;;19.52;31.59;101652.50;5078135;27;47394;-56
2022/01/31 10:35:06;;;;;;;;;3.75;2.00;;;;;19.49;31.78;101673.66;5079337;27;46064;-59
2022/01/31 10:37:34;;;;;;;;;1.75;1.00;;;;;19.47;31.38;101655.31;5079324;27;45421;-59
2022/01/31 10:45:39;;;;;;;;;1.00;1.00;;;;;19.38;31.56;101669.66;5079111;28;45330;-59
2022/01/31 10:53:56;;;;;;;;;4.00;2.00;;;;;19.33;31.63;101666.34;5078920;27;45283;-57
2022/01/31 10:56:22;;;;;;;;;3.50;2.75;;;;;19.33;31.47;101661.09;5078971;27;45334;-58
2022/01/31 10:59:01;;;;;;;;;4.75;2.75;;;;;19.31;31.38;101666.38;5079231;28;45433;-57
2022/01/31 11:01:28;;;;;;;;;1.25;1.25;;;;;19.30;31.35;101672.56;5079303;27;45303;-59
2022/01/31 11:03:54;;;;;;;;;1.00;1.00;;;;;19.28;31.56;101666.53;5078735;27;45428;-58
2022/01/31 11:06:21;;;;;;;;;2.50;1.75;;;;;19.26;31.63;101675.34;5077498;28;45765;-58
2022/01/31 11:08:47;;;;;;;;;3.00;2.00;;;;;19.24;31.42;101675.44;5078013;28;45355;-59
2022/01/31 11:11:13;;;;;;;;;3.00;3.00;;;;;19.25;31.60;101671.00;5079421;27;45498;-59
2022/01/31 11:13:38;;;;;;;;;3.25;2.00;;;;;19.22;31.52;101663.25;5078687;27;46343;-58
2022/01/31 11:16:06;;;;;;;;;1.75;1.75;;;;;19.21;31.05;101670.28;5078716;27;45277;-59
2022/01/31 11:18:34;;;;;;;;;1.00;1.00;;;;;19.19;31.31;101655.47;5078692;27;45374;-58
2022/01/31 11:21:03;;;;;;;;;2.25;2.25;;;;;19.18;30.79;101669.53;5078772;27;45522;-58
2022/01/31 11:23:32;;;;;;;;;3.00;1.25;;;;;19.16;30.73;101673.06;5078500;27;45479;-59
2022/01/31 11:26:00;;;;;;;;;4.75;1.75;;;;;19.15;30.65;101671.34;5078481;27;45893;-60
2022/01/31 11:28:30;;;;;;;;;2.00;1.00;;;;;19.12;30.98;101666.22;5078800;28;45339;-58
2022/01/31 11:30:56;;;;;;;;;2.00;1.00;;;;;19.13;30.74;101688.94;5077950;27;45426;-57
2022/01/31 11:33:23;;;;;;;;;2.75;2.00;;;;;19.10;30.65;101691.69;5078172;27;46627;-59
2022/01/31 11:35:49;;;;;;;;;2.00;1.00;;;;;19.11;31.00;101684.66;5078666;28;45692;-59
2022/01/31 11:38:16;;;;;;;;;1.75;1.00;;;;;19.10;30.83;101668.06;5078752;27;45435;-58
2022/01/31 11:40:42;;;;;;;;;4.75;1.25;;;;;19.10;30.85;101664.53;5078662;27;45323;-59
2022/01/31 11:43:10;;;;;;;;;1.25;1.00;;;;;19.09;30.63;101674.22;5078249;27;46689;-59
2022/01/31 11:45:39;;;;;;;;;1.50;1.00;;;;;19.07;30.80;101669.94;5078245;27;45811;-58
2022/01/31 11:48:22;;;;;;;;;2.25;1.00;;;;;19.07;31.06;101673.41;5078340;27;45208;-59